Time;durP1;ratioP1;P1;durP2;ratioP2;P2;SDS_P1;SDS_P2;PMS_P1;PMS_P2;Temp;Humidity;BMP_temperature;BMP_pressure;BME280_temperature;BME280_humidity;BME280_pressure;Samples;Min_cycle;Max_cycle;Signal;HPM_P1;HPM_P2
2023/01/27 00:00:57;;;;;;;0.70;0.70;;;-3.00;99.90;;;;;;5052741;28;20268;-69
2023/01/27 00:03:23;;;;;;;0.75;0.75;;;-3.10;99.90;;;;;;5050978;28;20631;-69
2023/01/27 00:05:49;;;;;;;0.73;0.73;;;-3.10;99.90;;;;;;5051182;28;20204;-69
2023/01/27 00:08:15;;;;;;;0.70;0.70;;;-3.10;99.90;;;;;;5051345;28;20197;-69
2023/01/27 00:10:41;;;;;;;0.80;0.80;;;-3.10;99.90;;;;;;5052358;28;20193;-69
2023/01/27 00:13:26;;;;;;;0.73;0.73;;;-3.20;99.90;;;;;;5052440;28;20677;-69
2023/01/27 00:15:51;;;;;;;0.70;0.70;;;-3.20;99.90;;;;;;5069000;28;20224;-69
2023/01/27 00:18:17;;;;;;;0.77;0.77;;;-3.20;99.90;;;;;;5057087;28;20278;-69
2023/01/27 00:26:15;;;;;;;0.73;0.73;;;-3.30;99.90;;;;;;5052798;28;20281;-69
2023/01/27 00:28:42;;;;;;;0.70;0.70;;;-3.20;99.90;;;;;;5052181;28;20193;-69
2023/01/27 00:34:00;;;;;;;0.80;0.80;;;-3.10;99.90;;;;;;5052474;28;20215;-69
2023/01/27 00:36:29;;;;;;;0.70;0.70;;;-3.10;99.90;;;;;;5051311;28;20236;-69
2023/01/27 00:38:56;;;;;;;0.82;0.82;;;-3.20;99.90;;;;;;5056369;28;20258;-68
2023/01/27 00:41:22;;;;;;;0.70;0.70;;;-3.20;99.90;;;;;;5056072;28;20601;-71
2023/01/27 00:43:50;;;;;;;0.70;0.70;;;-3.20;99.90;;;;;;5054940;28;20216;-69
2023/01/27 00:46:16;;;;;;;0.80;0.80;;;-3.10;99.90;;;;;;5056494;28;20606;-70
2023/01/27 00:48:42;;;;;;;0.82;0.82;;;-3.20;99.90;;;;;;5056239;28;20197;-69
2023/01/27 00:51:09;;;;;;;0.70;0.70;;;-3.20;99.90;;;;;;5054822;28;20197;-69
2023/01/27 00:53:35;;;;;;;0.77;0.77;;;-3.30;99.90;;;;;;5056063;28;20207;-70
2023/01/27 00:56:00;;;;;;;0.80;0.80;;;-3.40;99.90;;;;;;5056157;28;20194;-70
2023/01/27 00:58:27;;;;;;;0.80;0.80;;;-3.50;99.90;;;;;;5055776;28;20205;-70
2023/01/27 01:00:54;;;;;;;0.80;0.80;;;-3.60;99.90;;;;;;5055799;28;20217;-70
2023/01/27 01:03:21;;;;;;;0.80;0.80;;;-3.60;99.90;;;;;;5063666;28;20320;-70
2023/01/27 01:05:48;;;;;;;0.70;0.70;;;-3.70;99.90;;;;;;5075788;28;20196;-70
2023/01/27 01:08:14;;;;;;;0.80;0.80;;;-3.80;99.90;;;;;;5057858;28;20224;-69
2023/01/27 01:10:40;;;;;;;0.70;0.70;;;-3.80;99.90;;;;;;5075240;28;20247;-69
2023/01/27 01:13:12;;;;;;;0.80;0.80;;;-3.80;99.90;;;;;;5075946;28;20194;-69
2023/01/27 01:15:38;;;;;;;0.77;0.77;;;-3.90;99.90;;;;;;5075636;28;20645;-70
2023/01/27 01:18:05;;;;;;;0.77;0.77;;;-3.90;99.90;;;;;;5075440;28;20657;-70
2023/01/27 01:20:36;;;;;;;0.80;0.80;;;-3.90;99.90;;;;;;5075456;28;20216;-69
2023/01/27 01:23:02;;;;;;;0.80;0.80;;;-4.00;99.90;;;;;;5075876;28;20239;-69
2023/01/27 01:25:27;;;;;;;0.80;0.80;;;-3.90;99.90;;;;;;5057411;28;20188;-69
2023/01/27 01:27:53;;;;;;;0.70;0.70;;;-4.00;99.90;;;;;;5075612;28;20197;-69
2023/01/27 01:30:20;;;;;;;0.90;0.90;;;-3.90;99.90;;;;;;5075298;28;20241;-70
2023/01/27 01:32:46;;;;;;;0.70;0.70;;;-4.00;99.90;;;;;;5075418;28;20223;-70
2023/01/27 01:35:12;;;;;;;0.80;0.80;;;-3.90;99.90;;;;;;5074110;28;20192;-70
2023/01/27 01:37:38;;;;;;;0.70;0.70;;;-3.90;99.90;;;;;;5075071;28;20208;-70
2023/01/27 01:40:05;;;;;;;0.80;0.80;;;-3.80;99.90;;;;;;5075202;28;20196;-70
2023/01/27 01:42:52;;;;;;;0.80;0.80;;;-3.80;99.90;;;;;;5074998;28;20189;-70
2023/01/27 01:45:35;;;;;;;0.80;0.80;;;-3.80;99.90;;;;;;5074988;28;20232;-70
2023/01/27 01:48:24;;;;;;;0.70;0.70;;;-3.80;99.90;;;;;;5074470;28;20247;-70
2023/01/27 01:51:12;;;;;;;0.80;0.80;;;-3.80;99.90;;;;;;5074425;28;20196;-69
2023/01/27 01:53:57;;;;;;;0.80;0.80;;;-3.90;99.90;;;;;;5056499;28;20203;-69
2023/01/27 01:56:51;;;;;;;0.80;0.80;;;-3.90;99.90;;;;;;5056734;28;20208;-70
2023/01/27 01:59:26;;;;;;;0.80;0.80;;;-4.00;99.90;;;;;;5074854;28;20234;-70
2023/01/27 02:01:55;;;;;;;0.80;0.80;;;-4.10;99.90;;;;;;5088093;22;20226;-74
2023/01/27 02:04:25;;;;;;;0.90;0.90;;;-4.10;99.90;;;;;;5101396;28;20549;-68
2023/01/27 02:07:02;;;;;;;0.80;0.80;;;-4.10;99.90;;;;;;5080017;28;20223;-67
2023/01/27 02:09:28;;;;;;;1.00;1.00;;;-4.10;99.90;;;;;;5093644;28;20264;-67
2023/01/27 02:11:56;;;;;;;0.75;0.75;;;-4.10;99.90;;;;;;5093813;28;20630;-70
2023/01/27 02:14:22;;;;;;;0.80;0.80;;;-4.10;99.90;;;;;;5093645;28;20202;-71
2023/01/27 02:16:48;;;;;;;0.80;0.80;;;-4.10;99.90;;;;;;5094843;28;20204;-71
2023/01/27 02:19:48;;;;;;;0.70;0.70;;;-4.10;99.90;;;;;;5093560;28;20223;-70
2023/01/27 02:22:35;;;;;;;0.80;0.80;;;-4.20;99.90;;;;;;5092275;28;20196;-70
2023/01/27 02:25:09;;;;;;;0.70;0.70;;;-4.20;99.90;;;;;;5095187;28;20219;-69
2023/01/27 02:27:35;;;;;;;0.73;0.73;;;-4.30;99.90;;;;;;5093548;28;20544;-70
2023/01/27 02:30:01;;;;;;;0.80;0.80;;;-4.30;99.90;;;;;;5093585;28;20200;-70
2023/01/27 02:32:26;;;;;;;0.80;0.80;;;-4.30;99.90;;;;;;5094715;28;20191;-70
2023/01/27 02:34:55;;;;;;;0.80;0.80;;;-4.30;99.90;;;;;;5094708;28;20192;-70
2023/01/27 02:37:22;;;;;;;0.80;0.80;;;-4.30;99.90;;;;;;5094402;28;20650;-70
2023/01/27 02:39:51;;;;;;;0.70;0.70;;;-4.30;99.90;;;;;;5094512;28;20223;-70
2023/01/27 02:42:18;;;;;;;0.70;0.70;;;-4.40;99.90;;;;;;5094546;28;20559;-70
2023/01/27 02:44:44;;;;;;;0.80;0.80;;;-4.40;99.90;;;;;;5094277;28;20188;-70
2023/01/27 02:47:10;;;;;;;0.80;0.80;;;-4.50;99.90;;;;;;5092027;28;20192;-70
2023/01/27 02:49:35;;;;;;;0.80;0.80;;;-4.60;99.90;;;;;;5072764;28;20254;-70
2023/01/27 02:52:01;;;;;;;0.80;0.80;;;-4.70;99.90;;;;;;5074198;28;20201;-70
2023/01/27 02:54:29;;;;;;;0.80;0.80;;;-4.70;99.90;;;;;;5073995;28;20207;-70
2023/01/27 02:56:54;;;;;;;0.80;0.80;;;-4.80;99.90;;;;;;5074027;28;20188;-70
2023/01/27 02:59:20;;;;;;;0.70;0.70;;;-4.80;99.90;;;;;;5073818;28;20215;-71
2023/01/27 03:01:46;;;;;;;0.70;0.70;;;-4.80;99.90;;;;;;5085323;28;20290;-69
2023/01/27 03:04:12;;;;;;;0.70;0.70;;;-4.80;99.90;;;;;;5092293;28;20223;-70
2023/01/27 03:06:38;;;;;;;0.80;0.80;;;-4.80;99.90;;;;;;5092516;28;20203;-70
2023/01/27 03:09:04;;;;;;;0.80;0.80;;;-4.80;99.90;;;;;;5092777;28;20681;-70
2023/01/27 03:14:17;;;;;;;0.80;0.80;;;-4.80;99.90;;;;;;5093943;28;20607;-69
2023/01/27 03:19:27;;;;;;;0.90;0.90;;;-4.80;99.90;;;;;;5093512;28;20307;-70
2023/01/27 03:21:53;;;;;;;0.70;0.70;;;-4.80;99.90;;;;;;5093724;28;20267;-70
2023/01/27 03:24:19;;;;;;;0.80;0.80;;;-4.80;99.90;;;;;;5093623;28;20218;-70
2023/01/27 03:26:45;;;;;;;0.80;0.80;;;-4.90;99.90;;;;;;5093623;28;20188;-70
2023/01/27 03:31:55;;;;;;;0.80;0.80;;;-4.80;99.90;;;;;;5093859;28;20199;-71
2023/01/27 03:34:21;;;;;;;0.70;0.70;;;-4.80;99.90;;;;;;5093384;28;20199;-68
2023/01/27 03:47:44;;;;;;;0.73;0.73;;;-4.90;99.90;;;;;;5093150;28;20198;-67
2023/01/27 03:50:12;;;;;;;0.80;0.80;;;-4.90;99.90;;;;;;5093359;28;20266;-69
2023/01/27 03:52:38;;;;;;;0.80;0.80;;;-4.80;99.90;;;;;;5093114;28;20246;-70
2023/01/27 03:55:08;;;;;;;0.80;0.80;;;-4.80;99.90;;;;;;5093224;28;20199;-69
2023/01/27 03:57:36;;;;;;;0.80;0.80;;;-4.80;99.90;;;;;;5092896;28;20201;-70
2023/01/27 04:00:03;;;;;;;0.82;0.82;;;-4.70;99.90;;;;;;5091726;28;20192;-68
2023/01/27 04:08:00;;;;;;;0.90;0.90;;;-4.70;99.90;;;;;;5093131;28;20210;-70
2023/01/27 04:10:26;;;;;;;0.70;0.70;;;-4.60;99.90;;;;;;5091575;28;20200;-70
2023/01/27 04:12:51;;;;;;;0.80;0.80;;;-4.70;99.90;;;;;;5092685;28;20194;-70
2023/01/27 04:15:18;;;;;;;0.80;0.80;;;-4.70;99.90;;;;;;5093064;28;20196;-70
2023/01/27 04:17:44;;;;;;;0.70;0.70;;;-4.70;99.90;;;;;;5092591;28;20662;-70
2023/01/27 04:20:10;;;;;;;0.90;0.90;;;-4.70;99.90;;;;;;5092945;28;20278;-68
2023/01/27 04:22:36;;;;;;;0.90;0.90;;;-4.70;99.90;;;;;;5092580;28;20192;-70
2023/01/27 04:25:01;;;;;;;0.70;0.70;;;-4.80;99.90;;;;;;5092889;28;20230;-70
2023/01/27 04:27:27;;;;;;;0.75;0.75;;;-4.80;99.90;;;;;;5091317;28;20674;-70
2023/01/27 04:29:53;;;;;;;0.80;0.80;;;-4.80;99.90;;;;;;5092852;28;20188;-70
2023/01/27 04:32:19;;;;;;;0.80;0.80;;;-4.70;99.90;;;;;;5092681;28;20554;-72
2023/01/27 04:34:45;;;;;;;0.80;0.80;;;-4.80;99.90;;;;;;5092699;28;20188;-70
2023/01/27 04:37:10;;;;;;;0.73;0.73;;;-4.80;99.90;;;;;;5092516;28;20217;-71
2023/01/27 04:39:36;;;;;;;0.80;0.80;;;-4.80;99.90;;;;;;5092157;28;20208;-70
2023/01/27 04:42:02;;;;;;;0.90;0.90;;;-4.80;99.90;;;;;;5092751;28;20184;-71
2023/01/27 04:44:28;;;;;;;0.80;0.80;;;-4.80;99.90;;;;;;5091134;28;20192;-73
2023/01/27 04:46:54;;;;;;;0.80;0.80;;;-4.80;99.90;;;;;;5092598;28;20241;-71
2023/01/27 04:49:20;;;;;;;0.80;0.80;;;-4.80;99.90;;;;;;5092456;28;20233;-72
2023/01/27 04:51:46;;;;;;;0.80;0.80;;;-4.80;99.90;;;;;;5091228;28;20192;-72
2023/01/27 04:54:11;;;;;;;0.80;0.80;;;-4.80;99.90;;;;;;5091311;28;20669;-73
2023/01/27 04:56:41;;;;;;;0.80;0.80;;;-4.80;99.90;;;;;;5092022;28;20203;-72
2023/01/27 04:59:10;;;;;;;0.80;0.80;;;-4.70;99.90;;;;;;5091177;28;20240;-72
2023/01/27 05:01:35;;;;;;;0.80;0.80;;;-4.70;99.90;;;;;;5092071;28;20650;-72
2023/01/27 05:04:01;;;;;;;0.73;0.73;;;-4.80;99.90;;;;;;5092226;28;20222;-72
2023/01/27 05:06:27;;;;;;;0.90;0.90;;;-4.80;99.90;;;;;;5092275;28;20250;-72
2023/01/27 05:08:53;;;;;;;0.70;0.70;;;-4.80;99.90;;;;;;5092453;28;20192;-72
2023/01/27 05:11:19;;;;;;;0.80;0.80;;;-4.80;99.90;;;;;;5091007;28;20640;-72
2023/01/27 05:13:45;;;;;;;0.80;0.80;;;-4.90;99.90;;;;;;5090965;28;20283;-72
2023/01/27 05:16:10;;;;;;;0.80;0.80;;;-4.90;99.90;;;;;;5092495;28;20283;-69
2023/01/27 05:18:37;;;;;;;0.80;0.80;;;-4.90;99.90;;;;;;5091645;28;20716;-70
2023/01/27 05:21:04;;;;;;;0.80;0.80;;;-4.90;99.90;;;;;;5090958;28;20279;-70
2023/01/27 05:23:35;;;;;;;0.80;0.80;;;-4.90;99.90;;;;;;5092560;28;20241;-72
2023/01/27 05:26:15;;;;;;;0.80;0.80;;;-4.90;99.90;;;;;;5094688;28;20638;-73
2023/01/27 05:28:43;;;;;;;0.70;0.70;;;-4.90;99.90;;;;;;5095746;28;20211;-73
2023/01/27 05:31:14;;;;;;;0.80;0.80;;;-4.90;99.90;;;;;;5095931;28;20192;-72
2023/01/27 05:33:43;;;;;;;0.80;0.80;;;-4.90;99.90;;;;;;5095388;28;20674;-72
2023/01/27 05:36:11;;;;;;;0.82;0.82;;;-4.80;99.90;;;;;;5094380;28;20200;-72
2023/01/27 05:38:37;;;;;;;0.80;0.80;;;-4.70;99.90;;;;;;5094096;28;20258;-72
2023/01/27 05:41:05;;;;;;;0.80;0.80;;;-4.70;99.90;;;;;;5095700;28;20188;-72
2023/01/27 05:43:33;;;;;;;0.80;0.80;;;-4.70;99.90;;;;;;5094162;28;20208;-72
2023/01/27 05:46:03;;;;;;;0.80;0.80;;;-4.70;99.90;;;;;;5095704;28;20325;-72
2023/01/27 05:48:29;;;;;;;0.70;0.70;;;-4.80;99.90;;;;;;5094051;28;20242;-72
2023/01/27 05:50:57;;;;;;;0.93;0.93;;;-4.70;99.90;;;;;;5094350;28;20207;-72
2023/01/27 05:53:23;;;;;;;0.70;0.70;;;-4.80;99.90;;;;;;5093796;28;20211;-72
2023/01/27 05:55:50;;;;;;;0.80;0.80;;;-4.80;99.90;;;;;;5095428;28;20665;-72
2023/01/27 05:58:16;;;;;;;0.80;0.80;;;-4.80;99.90;;;;;;5095348;28;20562;-72
2023/01/27 06:00:42;;;;;;;0.80;0.80;;;-4.80;99.90;;;;;;5093774;28;20199;-72
2023/01/27 06:03:08;;;;;;;0.90;0.90;;;-4.80;99.90;;;;;;5094975;28;20220;-72
2023/01/27 06:05:34;;;;;;;0.80;0.80;;;-4.80;99.90;;;;;;5095132;28;20271;-72
2023/01/27 06:08:00;;;;;;;0.80;0.80;;;-4.90;99.90;;;;;;5095250;28;20673;-72
2023/01/27 06:10:25;;;;;;;0.75;0.75;;;-4.90;99.90;;;;;;5094982;28;20192;-72
2023/01/27 06:12:51;;;;;;;0.80;0.80;;;-5.00;99.90;;;;;;5093824;28;20208;-72
2023/01/27 06:15:17;;;;;;;0.70;0.70;;;-5.00;99.90;;;;;;5095027;28;20223;-72
2023/01/27 06:17:42;;;;;;;0.80;0.80;;;-5.00;99.90;;;;;;5094598;28;20239;-72
2023/01/27 06:20:09;;;;;;;0.80;0.80;;;-5.00;99.90;;;;;;5095019;28;20192;-72
2023/01/27 06:22:34;;;;;;;0.80;0.80;;;-5.00;99.90;;;;;;5094676;28;20184;-72
2023/01/27 06:25:00;;;;;;;0.80;0.80;;;-5.00;99.90;;;;;;5094768;28;20203;-72
2023/01/27 06:27:26;;;;;;;0.80;0.80;;;-5.00;99.90;;;;;;5094609;28;20642;-72
2023/01/27 06:29:52;;;;;;;0.82;0.82;;;-5.10;99.90;;;;;;5094532;28;20275;-72
2023/01/27 06:32:17;;;;;;;0.80;0.80;;;-5.10;99.90;;;;;;5094575;28;20196;-72
2023/01/27 06:34:43;;;;;;;0.80;0.80;;;-5.10;99.90;;;;;;5095049;28;20191;-72
2023/01/27 06:37:09;;;;;;;0.80;0.80;;;-5.20;99.90;;;;;;5091908;28;20242;-72
2023/01/27 06:39:35;;;;;;;0.80;0.80;;;-5.30;99.90;;;;;;5093011;28;20212;-72
2023/01/27 06:42:00;;;;;;;0.80;0.80;;;-5.30;99.90;;;;;;5094592;28;20188;-72
2023/01/27 06:44:26;;;;;;;0.80;0.80;;;-5.40;99.90;;;;;;5094398;28;20192;-72
2023/01/27 06:46:52;;;;;;;0.73;0.73;;;-5.30;99.90;;;;;;5094406;28;20563;-72
2023/01/27 06:49:18;;;;;;;0.80;0.80;;;-5.40;99.90;;;;;;5104156;28;20204;-72
2023/01/27 06:51:44;;;;;;;0.80;0.80;;;-5.40;99.90;;;;;;5093488;28;20653;-72
2023/01/27 06:54:10;;;;;;;0.90;0.90;;;-5.40;99.90;;;;;;5094389;28;20202;-72
2023/01/27 06:56:36;;;;;;;0.80;0.80;;;-5.40;99.90;;;;;;5093907;28;20193;-72
2023/01/27 06:59:01;;;;;;;0.80;0.80;;;-5.50;99.90;;;;;;5092785;28;20208;-72
2023/01/27 07:01:27;;;;;;;0.70;0.70;;;-5.50;99.90;;;;;;5093791;28;20192;-72
2023/01/27 07:03:53;;;;;;;0.80;0.80;;;-5.50;99.90;;;;;;5094003;28;20581;-71
2023/01/27 07:06:19;;;;;;;0.80;0.80;;;-5.50;99.90;;;;;;5094013;28;20188;-70
2023/01/27 07:08:46;;;;;;;0.77;0.77;;;-5.50;99.90;;;;;;5092679;28;20200;-70
2023/01/27 07:11:12;;;;;;;0.80;0.80;;;-5.50;99.90;;;;;;5092681;28;20195;-71
2023/01/27 07:13:38;;;;;;;0.80;0.80;;;-5.50;99.90;;;;;;5093715;28;20650;-71
2023/01/27 07:16:05;;;;;;;0.80;0.80;;;-5.50;99.90;;;;;;5093803;28;20236;-71
2023/01/27 07:18:31;;;;;;;0.80;0.80;;;-5.50;99.90;;;;;;5088651;28;20295;-71
2023/01/27 07:21:02;;;;;;;0.80;0.80;;;-5.50;99.90;;;;;;5073626;28;20593;-71
2023/01/27 07:23:27;;;;;;;0.80;0.80;;;-5.50;99.90;;;;;;5071975;28;20205;-71
2023/01/27 07:25:53;;;;;;;0.73;0.73;;;-5.50;99.90;;;;;;5092246;28;20188;-71
2023/01/27 07:28:19;;;;;;;0.80;0.80;;;-5.40;99.90;;;;;;5093248;28;20206;-71
2023/01/27 07:30:44;;;;;;;0.82;0.82;;;-5.50;99.90;;;;;;5093599;28;20196;-71
2023/01/27 07:33:12;;;;;;;0.80;0.80;;;-5.50;99.90;;;;;;5093488;28;20195;-71
2023/01/27 07:35:39;;;;;;;0.70;0.70;;;-5.50;99.90;;;;;;5093321;28;20908;-71
2023/01/27 07:38:06;;;;;;;0.90;0.90;;;-5.50;99.90;;;;;;5093474;28;20196;-71
2023/01/27 07:40:32;;;;;;;0.80;0.80;;;-5.50;99.90;;;;;;5090980;28;20398;-71
2023/01/27 07:42:59;;;;;;;0.85;0.85;;;-5.50;99.90;;;;;;5093387;28;20192;-71
2023/01/27 07:45:26;;;;;;;0.73;0.73;;;-5.50;99.90;;;;;;5082329;28;20239;-71
2023/01/27 07:47:51;;;;;;;0.83;0.83;;;-5.50;99.90;;;;;;5072527;28;20287;-71
2023/01/27 07:50:38;;;;;;;0.80;0.80;;;-5.50;99.90;;;;;;5088564;28;20300;-70
2023/01/27 07:53:04;;;;;;;0.80;0.80;;;-5.50;99.90;;;;;;5071667;28;20266;-71
2023/01/27 07:55:31;;;;;;;0.90;0.90;;;-5.50;99.90;;;;;;5071462;28;20620;-71
2023/01/27 07:57:57;;;;;;;0.70;0.70;;;-5.50;99.90;;;;;;5072820;28;20228;-71
2023/01/27 08:00:23;;;;;;;0.80;0.80;;;-5.50;99.90;;;;;;5072636;28;20204;-71
2023/01/27 08:02:53;;;;;;;1.30;1.20;;;-5.40;99.90;;;;;;5073682;28;20611;-71
2023/01/27 08:05:19;;;;;;;10.55;3.80;;;-5.40;99.90;;;;;;5092828;28;20180;-72
2023/01/27 08:07:46;;;;;;;2.50;1.67;;;-5.40;99.90;;;;;;5092868;28;20295;-71
2023/01/27 08:10:11;;;;;;;3.75;1.58;;;-5.30;99.90;;;;;;5093034;28;20188;-71
2023/01/27 08:12:37;;;;;;;0.80;0.80;;;-5.30;99.90;;;;;;5092617;28;20192;-71
2023/01/27 08:15:04;;;;;;;0.80;0.80;;;-5.30;99.90;;;;;;5092540;28;20220;-72
2023/01/27 08:17:30;;;;;;;1.20;1.13;;;-5.20;99.90;;;;;;5091187;28;20192;-71
2023/01/27 08:19:56;;;;;;;0.80;0.80;;;-5.20;99.90;;;;;;5092792;28;20192;-71
2023/01/27 08:22:22;;;;;;;0.80;0.80;;;-5.20;99.90;;;;;;5092318;28;20196;-71
2023/01/27 08:24:48;;;;;;;0.80;0.80;;;-5.20;99.90;;;;;;5091211;28;20337;-72
2023/01/27 08:27:15;;;;;;;1.00;1.00;;;-5.10;99.90;;;;;;5092645;28;20192;-72
2023/01/27 08:29:41;;;;;;;0.80;0.80;;;-5.10;99.90;;;;;;5092511;28;20200;-72
2023/01/27 08:32:07;;;;;;;0.80;0.80;;;-5.10;99.90;;;;;;5092804;28;20681;-72
2023/01/27 08:34:33;;;;;;;0.80;0.80;;;-5.10;99.90;;;;;;5091123;28;20207;-72
2023/01/27 08:36:58;;;;;;;0.70;0.70;;;-5.00;99.90;;;;;;5092720;28;20203;-72
2023/01/27 08:39:24;;;;;;;0.80;0.80;;;-5.00;99.90;;;;;;5092341;28;20204;-72
2023/01/27 08:41:50;;;;;;;0.90;0.90;;;-5.00;99.90;;;;;;5091016;28;20188;-72
2023/01/27 08:44:16;;;;;;;0.80;0.80;;;-4.90;99.90;;;;;;5091349;28;20203;-72
2023/01/27 08:46:45;;;;;;;0.80;0.80;;;-4.90;99.90;;;;;;5092261;28;20530;-71
2023/01/27 08:49:13;;;;;;;1.33;1.27;;;-4.90;99.90;;;;;;5092538;28;20199;-71
2023/01/27 08:51:39;;;;;;;1.13;1.08;;;-4.90;99.90;;;;;;5092213;28;20200;-71
2023/01/27 08:54:06;;;;;;;0.80;0.80;;;-4.80;99.90;;;;;;5092421;28;20222;-71
2023/01/27 08:56:32;;;;;;;1.05;1.05;;;-4.80;99.90;;;;;;5092188;28;20543;-72
2023/01/27 08:58:57;;;;;;;0.80;0.80;;;-4.80;99.90;;;;;;5092195;28;20237;-71
2023/01/27 09:01:23;;;;;;;1.00;1.00;;;-4.80;99.90;;;;;;5096656;28;20566;-70
2023/01/27 09:03:49;;;;;;;1.45;1.35;;;-4.80;99.90;;;;;;5086703;28;20223;-70
2023/01/27 09:06:15;;;;;;;4.55;2.15;;;-4.70;99.90;;;;;;5096334;28;20240;-70
2023/01/27 09:08:42;;;;;;;0.80;0.80;;;-4.70;99.90;;;;;;5096065;28;20685;-69
2023/01/27 09:11:15;;;;;;;0.90;0.90;;;-4.70;99.90;;;;;;5094975;28;20218;-70
2023/01/27 09:13:42;;;;;;;0.70;0.70;;;-4.70;99.90;;;;;;5095948;28;20531;-70
2023/01/27 09:16:08;;;;;;;0.80;0.80;;;-4.60;99.90;;;;;;5096175;28;20192;-70
2023/01/27 09:18:34;;;;;;;0.88;0.88;;;-4.60;99.90;;;;;;5094077;28;20208;-70
2023/01/27 09:21:04;;;;;;;1.25;1.17;;;-4.60;99.90;;;;;;5094546;28;20196;-69
2023/01/27 09:23:31;;;;;;;0.82;0.82;;;-4.60;99.90;;;;;;5095789;28;20658;-70
2023/01/27 09:25:57;;;;;;;0.80;0.80;;;-4.50;99.90;;;;;;5095993;28;20238;-69
2023/01/27 09:28:22;;;;;;;0.88;0.88;;;-4.50;99.90;;;;;;5095746;28;20216;-70
2023/01/27 09:30:48;;;;;;;0.80;0.80;;;-4.50;99.90;;;;;;5094527;28;20203;-69
2023/01/27 09:33:14;;;;;;;0.90;0.90;;;-4.50;99.90;;;;;;5094486;28;20231;-70
2023/01/27 09:35:51;;;;;;;1.77;1.67;;;-4.40;99.90;;;;;;5095566;28;20627;-70
2023/01/27 09:38:21;;;;;;;2.40;1.98;;;-4.40;99.90;;;;;;5095496;28;20226;-70
2023/01/27 09:41:13;;;;;;;0.80;0.80;;;-4.40;99.90;;;;;;5095565;28;20287;-70
2023/01/27 09:43:54;;;;;;;1.35;1.30;;;-4.40;99.90;;;;;;5094393;28;20192;-70
2023/01/27 09:46:34;;;;;;;1.15;0.98;;;-4.30;99.90;;;;;;5095444;28;20188;-71
2023/01/27 09:49:19;;;;;;;1.27;1.05;;;-4.30;99.90;;;;;;5095894;28;20676;-71
2023/01/27 09:52:13;;;;;;;0.80;0.80;;;-4.20;99.90;;;;;;5095632;28;20644;-71
2023/01/27 09:54:50;;;;;;;1.10;1.10;;;-4.10;99.90;;;;;;5070880;28;20276;-71
2023/01/27 09:57:38;;;;;;;0.80;0.80;;;-4.00;99.90;;;;;;5094114;28;20200;-71
2023/01/27 10:00:20;;;;;;;1.00;1.00;;;-4.00;99.90;;;;;;5094038;28;20294;-71
2023/01/27 10:03:27;;;;;;;0.70;0.70;;;-3.80;99.90;;;;;;5093405;28;20648;-71
2023/01/27 10:06:26;;;;;;;0.77;0.77;;;-3.70;99.90;;;;;;5053120;28;20208;-71
2023/01/27 10:09:33;;;;;;;1.55;1.45;;;-3.60;99.90;;;;;;5093859;28;20295;-71
2023/01/27 10:12:11;;;;;;;2.55;2.35;;;-3.50;99.90;;;;;;5073101;28;20227;-72
2023/01/27 10:14:51;;;;;;;0.70;0.70;;;-3.30;99.90;;;;;;5094625;28;20283;-71
2023/01/27 10:17:30;;;;;;;0.80;0.80;;;-3.00;99.90;;;;;;5093203;28;20286;-71
2023/01/27 10:20:59;;;;;;;;;;;;;;;;;;;;;
2023/01/27 10:23:32;;;;;;;0.80;0.80;;;-2.30;99.90;;;;;;5099609;28;20204;-72
2023/01/27 10:26:26;;;;;;;0.80;0.80;;;-2.00;99.90;;;;;;5093917;28;20196;-72
2023/01/27 10:29:03;;;;;;;0.80;0.80;;;-1.90;99.90;;;;;;5039831;28;20658;-72
2023/01/27 10:31:36;;;;;;;0.70;0.70;;;-1.70;99.90;;;;;;5094429;28;20215;-72
2023/01/27 10:34:31;;;;;;;0.70;0.70;;;-1.50;99.90;;;;;;5087195;28;20248;-70
2023/01/27 10:36:56;;;;;;;1.95;1.85;;;-1.30;99.90;;;;;;5090463;28;20219;-72
2023/01/27 10:39:45;;;;;;;1.98;1.80;;;-1.30;99.90;;;;;;5092924;28;20207;-72
2023/01/27 10:42:50;;;;;;;2.28;1.70;;;-1.20;99.90;;;;;;5094510;28;20728;-72
2023/01/27 10:45:28;;;;;;;0.70;0.70;;;-1.10;99.90;;;;;;5073038;28;20211;-72
2023/01/27 10:48:15;;;;;;;0.70;0.70;;;-1.00;99.90;;;;;;5094365;28;20188;-72
2023/01/27 10:50:49;;;;;;;0.77;0.77;;;-0.90;99.90;;;;;;5094103;28;20617;-72
2023/01/27 10:53:57;;;;;;;0.80;0.80;;;-0.80;99.90;;;;;;5094258;28;20684;-73
2023/01/27 10:56:45;;;;;;;0.70;0.70;;;-0.60;99.90;;;;;;5088119;28;20783;-72
2023/01/27 10:59:32;;;;;;;0.70;0.70;;;-0.50;99.90;;;;;;5092725;28;20212;-73
2023/01/27 11:02:23;;;;;;;0.70;0.70;;;-0.40;99.90;;;;;;5093969;28;20204;-73
2023/01/27 11:04:55;;;;;;;0.80;0.80;;;-0.40;99.90;;;;;;5092471;28;20196;-73
2023/01/27 11:07:22;;;;;;;0.80;0.80;;;-0.50;99.90;;;;;;5092531;28;20204;-71
2023/01/27 11:10:12;;;;;;;0.90;0.90;;;-0.50;99.90;;;;;;5093726;28;20201;-74
2023/01/27 11:12:42;;;;;;;0.70;0.70;;;-0.40;99.90;;;;;;5093655;28;21009;-71
2023/01/27 11:15:22;;;;;;;0.68;0.68;;;-0.30;99.90;;;;;;5092288;28;20257;-71
2023/01/27 11:18:04;;;;;;;0.65;0.65;;;-0.10;99.90;;;;;;5083485;28;20201;-74
2023/01/27 11:20:39;;;;;;;1.75;1.65;;;0.10;99.90;;;;;;5073146;28;20188;-71
2023/01/27 11:23:26;;;;;;;0.80;0.80;;;0.20;99.90;;;;;;5072838;28;20188;-71
2023/01/27 11:26:13;;;;;;;1.30;1.20;;;0.20;99.90;;;;;;5073438;28;20217;-74
2023/01/27 11:29:01;;;;;;;0.70;0.70;;;0.20;99.90;;;;;;5088720;28;20234;-74
2023/01/27 11:31:47;;;;;;;0.80;0.80;;;0.20;99.90;;;;;;5073140;28;20196;-71
2023/01/27 11:34:24;;;;;;;0.70;0.70;;;0.10;99.90;;;;;;5073339;28;20279;-74
2023/01/27 11:36:51;;;;;;;0.63;0.63;;;-0.10;99.90;;;;;;5073058;28;20275;-71
2023/01/27 11:39:17;;;;;;;3.15;2.45;;;-0.20;99.90;;;;;;5072997;28;20715;-71
2023/01/27 11:41:49;;;;;;;0.63;0.63;;;-0.20;99.90;;;;;;5072782;28;20705;-71
2023/01/27 11:44:23;;;;;;;0.77;0.77;;;-0.20;99.90;;;;;;5073110;28;20188;-71
2023/01/27 11:46:49;;;;;;;0.60;0.60;;;-0.10;99.90;;;;;;5073015;28;20197;-74
2023/01/27 11:49:26;;;;;;;0.60;0.60;;;0.00;99.90;;;;;;5086167;28;20666;-71
2023/01/27 11:52:04;;;;;;;0.65;0.65;;;0.00;99.90;;;;;;5091829;28;20256;-71
2023/01/27 11:54:38;;;;;;;0.65;0.65;;;0.00;99.90;;;;;;5091575;28;20195;-73
2023/01/27 11:57:03;;;;;;;0.73;0.73;;;-0.10;99.90;;;;;;5093147;28;20253;-73
2023/01/27 11:59:36;;;;;;;0.70;0.70;;;-0.20;99.90;;;;;;5092772;28;20593;-73
2023/01/27 12:02:28;;;;;;;0.70;0.70;;;-0.20;99.90;;;;;;5092508;28;20224;-73
2023/01/27 12:05:17;;;;;;;0.70;0.70;;;-0.20;99.90;;;;;;5091555;28;20231;-73
2023/01/27 12:07:53;;;;;;;0.70;0.70;;;-0.30;99.90;;;;;;5091181;28;20196;-72
2023/01/27 12:10:31;;;;;;;0.70;0.70;;;-0.30;99.90;;;;;;5092656;28;20203;-73
2023/01/27 12:13:19;;;;;;;0.60;0.60;;;-0.20;99.90;;;;;;5093272;28;20557;-73
2023/01/27 12:15:54;;;;;;;0.70;0.70;;;-0.30;99.90;;;;;;5092809;28;20262;-73
2023/01/27 12:18:22;;;;;;;0.70;0.70;;;-0.40;99.90;;;;;;5092350;28;20216;-73
2023/01/27 12:21:09;;;;;;;0.68;0.68;;;-0.40;99.90;;;;;;5092866;28;20220;-73
2023/01/27 12:23:52;;;;;;;0.70;0.70;;;-0.40;99.90;;;;;;5092502;28;20192;-73
2023/01/27 12:26:36;;;;;;;1.08;0.98;;;-0.30;99.90;;;;;;5092617;28;20653;-73
2023/01/27 12:29:13;;;;;;;0.70;0.70;;;-0.30;99.90;;;;;;5091441;28;20210;-74
2023/01/27 12:31:51;;;;;;;0.75;0.75;;;-0.30;99.90;;;;;;5092655;28;20196;-73
2023/01/27 12:34:34;;;;;;;0.73;0.73;;;-0.40;99.90;;;;;;5096243;28;20183;-73
2023/01/27 12:37:03;;;;;;;0.60;0.60;;;-0.40;99.90;;;;;;5096921;28;20198;-74
2023/01/27 12:40:13;;;;;;;0.60;0.60;;;-0.40;99.90;;;;;;5096509;28;20662;-74
2023/01/27 12:42:46;;;;;;;0.68;0.68;;;-0.50;99.90;;;;;;5081840;28;20204;-73
2023/01/27 12:45:19;;;;;;;0.80;0.80;;;-0.50;99.90;;;;;;5096805;28;20192;-73
2023/01/27 12:48:06;;;;;;;0.60;0.60;;;-0.50;99.90;;;;;;5096501;28;20673;-73
2023/01/27 12:50:34;;;;;;;0.70;0.70;;;-0.60;99.90;;;;;;5096230;28;20188;-73
2023/01/27 12:53:20;;;;;;;0.60;0.60;;;-0.70;99.90;;;;;;5096666;28;20272;-73
2023/01/27 12:55:49;;;;;;;0.57;0.57;;;-0.80;99.90;;;;;;5095206;28;20253;-73
2023/01/27 12:58:58;;;;;;;0.60;0.60;;;-0.90;99.90;;;;;;5096436;28;20231;-73
2023/01/27 13:01:30;;;;;;;0.60;0.60;;;-1.00;99.90;;;;;;5086537;28;20215;-73
2023/01/27 13:03:58;;;;;;;0.82;0.82;;;-1.10;99.90;;;;;;5094678;28;20227;-72
2023/01/27 13:06:28;;;;;;;0.70;0.70;;;-1.20;99.90;;;;;;5095943;28;20200;-72
2023/01/27 13:08:58;;;;;;;0.50;0.50;;;-1.30;99.90;;;;;;5096278;28;20220;-72
2023/01/27 13:11:40;;;;;;;0.68;0.68;;;-1.40;99.90;;;;;;5096129;28;20188;-73
2023/01/27 13:14:12;;;;;;;0.60;0.60;;;-1.40;99.90;;;;;;5094943;28;20203;-72
2023/01/27 13:16:38;;;;;;;0.63;0.63;;;-1.50;99.90;;;;;;5094511;28;20553;-72
2023/01/27 13:19:15;;;;;;;0.82;0.82;;;-1.60;99.90;;;;;;5095170;28;20238;-72
2023/01/27 13:21:42;;;;;;;0.60;0.60;;;-1.70;99.90;;;;;;5095328;28;20202;-72
2023/01/27 13:24:18;;;;;;;0.70;0.70;;;-1.70;99.90;;;;;;5096156;28;20264;-72
2023/01/27 13:26:45;;;;;;;0.60;0.60;;;-1.80;99.90;;;;;;5095760;28;20192;-72
2023/01/27 13:29:16;;;;;;;0.65;0.65;;;-1.90;99.90;;;;;;5096022;28;20246;-72
2023/01/27 13:32:24;;;;;;;0.77;0.77;;;-1.90;99.90;;;;;;5094415;28;20228;-72
2023/01/27 13:35:02;;;;;;;0.80;0.80;;;-2.00;99.90;;;;;;5081665;28;20291;-72
2023/01/27 13:37:44;;;;;;;0.77;0.77;;;-2.10;99.90;;;;;;5095606;28;20655;-72
2023/01/27 13:40:39;;;;;;;0.70;0.70;;;-2.10;99.90;;;;;;5094359;28;20255;-72
2023/01/27 13:43:32;;;;;;;0.75;0.75;;;-2.10;99.90;;;;;;5086073;28;20200;-72